Terminal Aerodrome Forecast
Issued by NWS

Home | Current Version | Previous Version | Text Only | Print | Product List | Glossary On
Versions: 1 2 3 4 5 6 7 8 9 10 11 12 13 14 15
371
FTUS46 KSEW 180532
TAFBFI
TAF
KBFI 180532Z 1806/1906 16008KT P6SM SCT015 SCT030 BKN050
      TEMPO 1806/1808 5SM -SHRA BR SCT015 OVC030
     FM180800 18012G22KT P6SM -SHRA SCT025 OVC050=

USA.gov is the U.S. government's official web portal to all federal, state and local government web resources and services.